Time;durP1;ratioP1;P1;durP2;ratioP2;P2;SDS_P1;SDS_P2;PMS_P1;PMS_P2;Temp;Humidity;BMP_temperature;BMP_pressure;BME280_temperature;BME280_humidity;BME280_pressure;Samples;Min_cycle;Max_cycle;Signal;HPM_P1;HPM_P2
2023/01/22 00:00:06;;;;;;;6.97;2.85;;;3.10;99.90;;;;;;4737197;30;20102;-73
2023/01/22 00:02:35;;;;;;;6.90;2.83;;;3.10;99.90;;;;;;4737332;30;20493;-73
2023/01/22 00:05:04;;;;;;;6.07;3.15;;;3.10;99.90;;;;;;4737126;30;20052;-73
2023/01/22 00:07:30;;;;;;;7.50;3.00;;;3.10;99.90;;;;;;4737076;30;20128;-73
2023/01/22 00:09:55;;;;;;;6.30;2.67;;;3.10;99.90;;;;;;4737286;30;20089;-73
2023/01/22 00:12:23;;;;;;;6.60;2.92;;;3.10;99.90;;;;;;4737265;30;20056;-73
2023/01/22 00:14:49;;;;;;;9.57;3.40;;;3.00;99.90;;;;;;4736975;30;20082;-73
2023/01/22 00:17:15;;;;;;;7.35;2.80;;;3.00;99.90;;;;;;4736953;30;20056;-74
2023/01/22 00:19:41;;;;;;;6.00;2.90;;;3.10;99.90;;;;;;4736900;30;20060;-73
2023/01/22 00:22:07;;;;;;;7.90;3.55;;;3.10;99.90;;;;;;4737006;30;20066;-73
2023/01/22 00:24:33;;;;;;;9.40;4.13;;;3.10;99.90;;;;;;4736737;30;20052;-73
2023/01/22 00:26:59;;;;;;;12.73;3.58;;;3.10;99.90;;;;;;4737673;30;20055;-73
2023/01/22 00:29:24;;;;;;;8.25;4.03;;;3.10;99.90;;;;;;4736885;30;20048;-73
2023/01/22 00:31:50;;;;;;;9.60;4.03;;;3.10;99.90;;;;;;4740387;30;20060;-73
2023/01/22 00:34:15;;;;;;;8.95;3.95;;;3.10;99.90;;;;;;4740655;30;20057;-73
2023/01/22 00:36:41;;;;;;;8.60;3.65;;;3.10;99.90;;;;;;4740861;30;20080;-73
2023/01/22 00:39:11;;;;;;;10.85;4.40;;;3.10;99.90;;;;;;4740513;30;20048;-73
2023/01/22 00:41:37;;;;;;;11.45;4.18;;;3.10;99.90;;;;;;4741075;30;20151;-73
2023/01/22 00:44:02;;;;;;;9.38;4.43;;;3.10;99.90;;;;;;4740267;30;20549;-73
2023/01/22 00:46:31;;;;;;;10.05;4.28;;;3.10;99.90;;;;;;4740265;30;20167;-73
2023/01/22 00:49:01;;;;;;;7.47;3.58;;;3.10;99.90;;;;;;4740262;30;20497;-73
2023/01/22 00:51:27;;;;;;;8.20;3.33;;;3.10;99.90;;;;;;4740252;30;20062;-73
2023/01/22 00:53:53;;;;;;;8.27;3.45;;;3.10;99.90;;;;;;4740508;30;20128;-73
2023/01/22 00:56:18;;;;;;;8.27;3.22;;;3.00;99.90;;;;;;4738946;30;20524;-73
2023/01/22 00:58:47;;;;;;;7.95;3.60;;;2.90;99.90;;;;;;4740302;30;20063;-73
2023/01/22 01:01:14;;;;;;;7.10;3.80;;;2.90;99.90;;;;;;4756071;30;20410;-73
2023/01/22 01:03:40;;;;;;;9.80;3.30;;;2.90;99.90;;;;;;4740305;30;20063;-73
2023/01/22 01:06:11;;;;;;;9.82;3.15;;;2.90;99.90;;;;;;4740061;30;20073;-73
2023/01/22 01:08:39;;;;;;;7.53;3.60;;;2.90;99.90;;;;;;4739994;30;20062;-73
2023/01/22 01:11:08;;;;;;;10.13;3.80;;;2.90;99.90;;;;;;4739952;30;20059;-73
2023/01/22 01:13:40;;;;;;;11.82;3.83;;;2.90;99.90;;;;;;4740091;30;20394;-73
2023/01/22 01:16:10;;;;;;;8.83;3.53;;;2.90;99.90;;;;;;4740351;30;20052;-73
2023/01/22 01:18:36;;;;;;;7.30;3.88;;;2.90;99.90;;;;;;4739807;30;20306;-73
2023/01/22 01:21:03;;;;;;;8.57;3.60;;;2.80;99.90;;;;;;4739630;30;20107;-73
2023/01/22 01:23:29;;;;;;;8.27;3.67;;;2.80;99.90;;;;;;4739654;30;20048;-73
2023/01/22 01:25:55;;;;;;;7.95;3.08;;;2.80;99.90;;;;;;4739634;30;20060;-73
2023/01/22 01:28:21;;;;;;;7.13;3.05;;;2.80;99.90;;;;;;4739650;30;20066;-73
2023/01/22 01:30:47;;;;;;;7.78;3.65;;;2.80;99.90;;;;;;4739719;30;20044;-73
2023/01/22 01:33:16;;;;;;;7.68;3.22;;;2.80;99.90;;;;;;4739537;30;20113;-73
2023/01/22 01:35:42;;;;;;;4.63;2.60;;;2.80;99.90;;;;;;4739649;30;20062;-73
2023/01/22 01:38:07;;;;;;;6.22;2.45;;;2.80;99.90;;;;;;4739293;30;20401;-73
2023/01/22 01:40:34;;;;;;;6.28;3.15;;;2.80;99.90;;;;;;4739703;30;20052;-73
2023/01/22 01:43:00;;;;;;;8.50;2.67;;;2.80;99.90;;;;;;4738741;30;20052;-73
2023/01/22 01:45:31;;;;;;;5.68;2.67;;;2.80;99.90;;;;;;4739333;30;20063;-73
2023/01/22 01:48:16;;;;;;;8.25;2.53;;;2.90;99.90;;;;;;4739532;30;20483;-73
2023/01/22 01:50:45;;;;;;;8.85;2.78;;;2.80;99.90;;;;;;4755078;30;20114;-73
2023/01/22 01:53:11;;;;;;;6.47;2.88;;;2.80;99.90;;;;;;4739190;30;20136;-73
2023/01/22 01:55:38;;;;;;;6.55;2.90;;;2.80;99.90;;;;;;4739251;30;20135;-73
2023/01/22 01:58:17;;;;;;;5.60;2.85;;;2.80;99.90;;;;;;4739547;30;20481;-73
2023/01/22 02:00:50;;;;;;;8.48;2.78;;;2.80;99.90;;;;;;4739054;30;20401;-73
2023/01/22 02:03:17;;;;;;;6.70;2.50;;;2.80;99.90;;;;;;4739129;30;20064;-73
2023/01/22 02:05:42;;;;;;;7.60;2.47;;;2.80;99.90;;;;;;4738846;30;20082;-73
2023/01/22 02:08:08;;;;;;;8.38;3.15;;;2.90;99.90;;;;;;4738694;30;20060;-73
2023/01/22 02:10:35;;;;;;;7.85;2.85;;;2.90;99.90;;;;;;4739167;30;20137;-73
2023/01/22 02:13:07;;;;;;;8.23;3.53;;;2.90;99.90;;;;;;4738711;30;20088;-73
2023/01/22 02:15:33;;;;;;;7.88;2.92;;;2.90;99.90;;;;;;4738856;30;20125;-73
2023/01/22 02:17:59;;;;;;;6.93;3.20;;;2.90;99.90;;;;;;4754541;30;20067;-73
2023/01/22 02:20:24;;;;;;;7.65;2.88;;;2.90;99.90;;;;;;4738850;30;20064;-73
2023/01/22 02:22:50;;;;;;;7.43;3.60;;;2.80;99.90;;;;;;4738829;30;20060;-73
2023/01/22 02:25:16;;;;;;;8.38;3.72;;;2.80;99.90;;;;;;4738641;30;20056;-73
2023/01/22 02:27:42;;;;;;;8.18;3.08;;;2.80;99.90;;;;;;4738404;30;20395;-73
2023/01/22 02:30:08;;;;;;;9.00;3.33;;;2.80;99.90;;;;;;4738699;30;20054;-73
2023/01/22 02:32:33;;;;;;;13.73;3.35;;;2.80;99.90;;;;;;4738748;30;20131;-73
2023/01/22 02:34:59;;;;;;;12.18;3.70;;;2.80;99.90;;;;;;4738552;30;20140;-73
2023/01/22 02:37:25;;;;;;;9.68;2.90;;;2.80;99.90;;;;;;4738609;30;20124;-73
2023/01/22 02:39:53;;;;;;;6.53;2.90;;;2.80;99.90;;;;;;4738641;30;20474;-73
2023/01/22 02:42:18;;;;;;;7.57;2.65;;;2.80;99.90;;;;;;4738435;30;20135;-73
2023/01/22 02:44:44;;;;;;;7.43;2.80;;;2.70;99.90;;;;;;4738214;30;20401;-73
2023/01/22 02:47:10;;;;;;;7.38;2.90;;;2.70;99.90;;;;;;4738195;30;20497;-73
2023/01/22 02:49:35;;;;;;;6.85;2.88;;;2.70;99.90;;;;;;4754324;30;20513;-73
2023/01/22 02:52:01;;;;;;;5.28;2.78;;;2.70;99.90;;;;;;4738377;30;20415;-73
2023/01/22 02:54:30;;;;;;;7.90;3.47;;;2.70;99.90;;;;;;4737158;30;20049;-73
2023/01/22 02:56:55;;;;;;;6.30;2.42;;;2.70;99.90;;;;;;4738238;30;20405;-73
2023/01/22 02:59:21;;;;;;;7.40;2.70;;;2.70;99.90;;;;;;4738028;30;20424;-73
2023/01/22 03:01:46;;;;;;;7.45;2.65;;;2.80;99.90;;;;;;4738104;30;20048;-73
2023/01/22 03:04:12;;;;;;;7.13;2.80;;;2.80;99.90;;;;;;4737245;30;20178;-73
2023/01/22 03:06:43;;;;;;;9.60;3.00;;;2.70;99.90;;;;;;4737992;30;20186;-73
2023/01/22 03:09:11;;;;;;;8.15;2.80;;;2.80;99.90;;;;;;4738260;30;20554;-73
2023/01/22 03:11:38;;;;;;;10.63;3.40;;;2.70;99.90;;;;;;4738039;30;20139;-73
2023/01/22 03:22:29;;;;;;;7.65;3.33;;;2.80;99.90;;;;;;4771442;30;20052;-73
2023/01/22 03:24:57;;;;;;;11.10;4.18;;;2.70;99.90;;;;;;4755643;30;20440;-73
2023/01/22 03:27:26;;;;;;;8.45;3.58;;;2.80;99.90;;;;;;4755183;30;20059;-73
2023/01/22 03:29:56;;;;;;;7.78;3.72;;;2.70;99.90;;;;;;4755257;30;20058;-73
2023/01/22 03:32:22;;;;;;;7.97;3.67;;;2.70;99.90;;;;;;4755050;30;20131;-73
2023/01/22 03:34:48;;;;;;;9.75;4.40;;;2.70;99.90;;;;;;4755405;30;20153;-73
2023/01/22 03:37:14;;;;;;;8.55;3.83;;;2.70;99.90;;;;;;4755081;30;20062;-73
2023/01/22 03:39:42;;;;;;;10.07;4.60;;;2.70;99.90;;;;;;4755369;30;20052;-73
2023/01/22 03:42:08;;;;;;;6.85;3.45;;;2.60;99.90;;;;;;4755341;30;20056;-73
2023/01/22 03:44:34;;;;;;;9.90;4.70;;;2.60;99.90;;;;;;4755084;30;20073;-73
2023/01/22 03:47:02;;;;;;;10.88;4.00;;;2.60;99.90;;;;;;4754820;30;20142;-73
2023/01/22 03:49:28;;;;;;;9.32;4.00;;;2.60;99.90;;;;;;4754963;30;20156;-73
2023/01/22 03:51:54;;;;;;;9.63;3.63;;;2.50;99.90;;;;;;4755220;30;20056;-73
2023/01/22 03:54:20;;;;;;;11.57;4.20;;;2.60;99.90;;;;;;4755154;30;20055;-73
2023/01/22 03:56:45;;;;;;;7.30;3.60;;;2.50;99.90;;;;;;4755247;30;20396;-73
2023/01/22 03:59:11;;;;;;;7.82;4.10;;;2.40;99.90;;;;;;4755035;30;20062;-73
2023/01/22 04:01:37;;;;;;;8.07;3.90;;;2.40;99.90;;;;;;4770951;30;20044;-73
2023/01/22 04:04:02;;;;;;;8.48;3.35;;;2.50;99.90;;;;;;4754760;30;20077;-73
2023/01/22 04:06:29;;;;;;;8.48;3.70;;;2.50;99.90;;;;;;4754410;30;20047;-73
2023/01/22 04:08:55;;;;;;;10.32;3.58;;;2.60;99.90;;;;;;4754800;30;20060;-73
2023/01/22 04:11:21;;;;;;;8.07;3.45;;;2.60;99.90;;;;;;4754913;30;20134;-73
2023/01/22 04:13:53;;;;;;;10.55;4.25;;;2.50;99.90;;;;;;4754911;30;20083;-73
2023/01/22 04:16:22;;;;;;;7.10;3.65;;;2.50;99.90;;;;;;4770462;30;20051;-73
2023/01/22 04:18:47;;;;;;;8.13;3.67;;;2.40;99.90;;;;;;4754273;30;20060;-73
2023/01/22 04:21:13;;;;;;;8.43;3.65;;;2.40;99.90;;;;;;4754592;30;20500;-73
2023/01/22 04:23:38;;;;;;;11.95;4.00;;;2.40;99.90;;;;;;4754660;30;20048;-73
2023/01/22 04:26:04;;;;;;;7.43;3.90;;;2.40;99.90;;;;;;4754567;30;20090;-73
2023/01/22 04:28:50;;;;;;;7.45;4.03;;;2.40;99.90;;;;;;4754346;30;20056;-73
2023/01/22 04:31:16;;;;;;;8.18;4.13;;;2.40;99.90;;;;;;4742410;30;20063;-73
2023/01/22 04:33:43;;;;;;;6.25;2.78;;;2.50;99.90;;;;;;4770707;30;20051;-73
2023/01/22 04:36:09;;;;;;;9.32;4.03;;;2.50;99.90;;;;;;4754326;30;20614;-73
2023/01/22 04:38:40;;;;;;;10.23;4.70;;;2.60;99.90;;;;;;4754684;30;20048;-72
2023/01/22 04:41:06;;;;;;;8.93;4.32;;;2.50;99.90;;;;;;4754302;30;20528;-73
2023/01/22 04:43:32;;;;;;;11.10;5.05;;;2.40;99.90;;;;;;4754709;30;20059;-73
2023/01/22 04:45:57;;;;;;;8.65;4.22;;;2.50;99.90;;;;;;4754562;30;20128;-73
2023/01/22 04:48:23;;;;;;;9.93;4.70;;;2.40;99.90;;;;;;4770563;30;20055;-73
2023/01/22 04:50:48;;;;;;;12.98;4.85;;;2.40;99.90;;;;;;4754454;30;20048;-73
2023/01/22 04:53:14;;;;;;;11.13;4.47;;;2.40;99.90;;;;;;4754639;30;20056;-73
2023/01/22 04:55:40;;;;;;;14.25;5.13;;;2.50;99.90;;;;;;4754145;30;20060;-73
2023/01/22 04:58:15;;;;;;;8.55;4.95;;;2.40;99.90;;;;;;4754399;30;20069;-73
2023/01/22 05:00:41;;;;;;;9.43;4.65;;;2.40;99.90;;;;;;4753703;30;20039;-73
2023/01/22 05:03:11;;;;;;;10.32;4.82;;;2.30;99.90;;;;;;4754241;30;20488;-73
2023/01/22 05:05:37;;;;;;;8.90;5.00;;;2.40;99.90;;;;;;4754154;30;20399;-73
2023/01/22 05:08:03;;;;;;;10.68;5.05;;;2.40;99.90;;;;;;4754055;30;20063;-73
2023/01/22 05:10:29;;;;;;;12.10;4.53;;;2.30;99.90;;;;;;4751773;30;20044;-73
2023/01/22 05:12:54;;;;;;;9.77;4.20;;;2.30;99.90;;;;;;4754214;30;20056;-73
2023/01/22 05:15:20;;;;;;;10.40;3.95;;;2.20;99.90;;;;;;4754268;30;20083;-73
2023/01/22 05:17:46;;;;;;;8.88;4.03;;;2.30;99.90;;;;;;4755573;30;20055;-73
2023/01/22 05:20:12;;;;;;;9.18;4.68;;;2.30;99.90;;;;;;4757343;30;20151;-73
2023/01/22 05:22:40;;;;;;;8.15;4.53;;;2.30;99.90;;;;;;4757724;30;20083;-73
2023/01/22 05:25:06;;;;;;;7.90;3.95;;;2.30;99.90;;;;;;4757356;30;20091;-73
2023/01/22 05:27:31;;;;;;;7.75;4.57;;;2.30;99.90;;;;;;4757297;30;20117;-73
2023/01/22 05:30:09;;;;;;;10.38;4.43;;;2.20;99.90;;;;;;4757219;30;20052;-73
2023/01/22 05:32:37;;;;;;;7.38;4.40;;;2.30;99.90;;;;;;4757585;30;20052;-73
2023/01/22 05:35:04;;;;;;;7.70;4.03;;;2.30;99.90;;;;;;4757436;30;20054;-73
2023/01/22 05:37:31;;;;;;;10.45;4.30;;;2.30;99.90;;;;;;4757316;30;20059;-73
2023/01/22 05:39:56;;;;;;;11.88;4.63;;;2.20;99.90;;;;;;4757520;30;20139;-73
2023/01/22 05:42:22;;;;;;;10.82;4.28;;;2.30;99.90;;;;;;4757089;30;20151;-73
2023/01/22 05:44:48;;;;;;;8.95;4.55;;;2.30;99.90;;;;;;4757110;30;20052;-73
2023/01/22 05:47:14;;;;;;;8.95;5.13;;;2.20;99.90;;;;;;4757037;30;20058;-73
2023/01/22 05:49:46;;;;;;;9.48;4.63;;;2.20;99.90;;;;;;4757318;30;20138;-73
2023/01/22 05:52:12;;;;;;;7.25;4.00;;;2.30;99.90;;;;;;4757171;30;20051;-73
2023/01/22 05:54:38;;;;;;;10.27;5.00;;;2.30;99.90;;;;;;4756947;30;20051;-73
2023/01/22 05:57:07;;;;;;;8.23;4.00;;;2.20;99.90;;;;;;4756753;30;20052;-73
2023/01/22 05:59:33;;;;;;;9.15;4.03;;;2.20;99.90;;;;;;4757026;30;20052;-73
2023/01/22 06:02:02;;;;;;;8.40;3.95;;;2.20;99.90;;;;;;4757080;30;20052;-73
2023/01/22 06:04:28;;;;;;;9.18;4.07;;;2.30;99.90;;;;;;4756698;30;20063;-73
2023/01/22 06:06:53;;;;;;;8.02;3.35;;;2.20;99.90;;;;;;4756602;30;20060;-73
2023/01/22 06:09:19;;;;;;;8.07;4.45;;;2.20;99.90;;;;;;4772775;30;20052;-73
2023/01/22 06:11:48;;;;;;;10.35;3.97;;;2.30;99.90;;;;;;4756946;30;20051;-73
2023/01/22 06:14:13;;;;;;;8.60;3.97;;;2.30;99.90;;;;;;4756405;30;20076;-73
2023/01/22 06:16:39;;;;;;;12.55;5.28;;;2.20;99.90;;;;;;4756649;30;20501;-73
2023/01/22 06:19:05;;;;;;;8.98;4.53;;;2.20;99.90;;;;;;4756256;30;20083;-73
2023/01/22 06:21:31;;;;;;;6.88;3.72;;;2.20;99.90;;;;;;4756642;30;20070;-73
2023/01/22 06:23:59;;;;;;;10.25;4.03;;;2.20;99.90;;;;;;4756492;30;20048;-73
2023/01/22 06:26:27;;;;;;;12.50;6.32;;;2.20;99.90;;;;;;4756493;30;20104;-73
2023/01/22 06:28:54;;;;;;;8.75;4.43;;;2.20;99.90;;;;;;4756229;30;20501;-73
2023/01/22 06:31:19;;;;;;;11.43;4.38;;;2.20;99.90;;;;;;4756332;30;20805;-73
2023/01/22 06:33:45;;;;;;;10.07;4.78;;;2.20;99.90;;;;;;4772210;30;20501;-73
2023/01/22 06:36:10;;;;;;;11.20;4.75;;;2.20;99.90;;;;;;4756463;30;20039;-73
2023/01/22 06:38:39;;;;;;;10.05;3.90;;;2.20;99.90;;;;;;4772296;30;20459;-73
2023/01/22 06:41:05;;;;;;;9.07;4.18;;;2.20;99.90;;;;;;4756501;30;20400;-73
2023/01/22 06:43:30;;;;;;;8.90;3.97;;;2.30;99.90;;;;;;4756189;30;20058;-73
2023/01/22 06:45:56;;;;;;;11.00;3.55;;;2.20;99.90;;;;;;4756129;30;20048;-73
2023/01/22 06:48:22;;;;;;;7.88;3.05;;;2.20;99.90;;;;;;4755872;30;20072;-73
2023/01/22 06:50:47;;;;;;;7.38;3.55;;;2.20;99.90;;;;;;4756056;30;20080;-73
2023/01/22 06:53:13;;;;;;;7.25;4.00;;;2.20;99.90;;;;;;4755965;30;20051;-73
2023/01/22 06:55:41;;;;;;;11.68;5.30;;;2.20;99.90;;;;;;4756202;30;20055;-73
2023/01/22 06:58:07;;;;;;;8.23;4.53;;;2.20;99.90;;;;;;4755933;30;20462;-73
2023/01/22 07:00:32;;;;;;;8.07;3.55;;;2.10;99.90;;;;;;4755739;30;20048;-73
2023/01/22 07:02:58;;;;;;;9.88;3.85;;;2.20;99.90;;;;;;4755741;30;20064;-73
2023/01/22 07:05:24;;;;;;;9.60;4.68;;;2.10;99.90;;;;;;4755966;30;20048;-73
2023/01/22 07:07:53;;;;;;;8.93;4.70;;;2.20;99.90;;;;;;4755700;30;20439;-73
2023/01/22 07:10:19;;;;;;;10.02;3.90;;;2.10;99.90;;;;;;4755951;30;20055;-73
2023/01/22 07:12:45;;;;;;;7.15;3.97;;;2.20;99.90;;;;;;4755893;30;20055;-73
2023/01/22 07:15:11;;;;;;;16.80;5.03;;;2.10;99.90;;;;;;4755553;30;20512;-73
2023/01/22 07:17:37;;;;;;;9.90;3.30;;;2.20;99.90;;;;;;4755518;30;20086;-73
2023/01/22 07:20:04;;;;;;;7.32;3.58;;;2.10;99.90;;;;;;4755299;30;20067;-73
2023/01/22 07:22:31;;;;;;;10.38;4.13;;;2.10;99.90;;;;;;4755812;30;20057;-73
2023/01/22 07:24:56;;;;;;;9.32;4.38;;;2.10;99.90;;;;;;4755591;30;20512;-73
2023/01/22 07:27:22;;;;;;;9.60;4.47;;;2.20;99.90;;;;;;4755294;30;20062;-73
2023/01/22 07:29:48;;;;;;;11.15;3.88;;;2.10;99.90;;;;;;4755257;30;20052;-73
2023/01/22 07:32:15;;;;;;;8.20;3.92;;;2.20;99.90;;;;;;4755241;30;20056;-73
2023/01/22 07:34:44;;;;;;;7.22;3.67;;;2.10;99.90;;;;;;4755429;30;20060;-73
2023/01/22 07:37:09;;;;;;;10.27;3.88;;;2.10;99.90;;;;;;4755123;30;20106;-73
2023/01/22 07:39:35;;;;;;;9.90;4.03;;;2.10;99.90;;;;;;4754728;30;20043;-73
2023/01/22 07:42:00;;;;;;;9.70;3.83;;;2.10;99.90;;;;;;4754704;30;20056;-73
2023/01/22 07:44:26;;;;;;;10.07;4.32;;;2.10;99.90;;;;;;4753500;30;20461;-73
2023/01/22 07:46:52;;;;;;;7.47;3.40;;;2.10;99.90;;;;;;4753950;30;20051;-73
2023/01/22 07:49:17;;;;;;;11.32;5.13;;;2.10;99.90;;;;;;4754998;30;20050;-73
2023/01/22 07:51:43;;;;;;;11.98;4.00;;;2.10;99.90;;;;;;4771066;30;20433;-72
2023/01/22 07:54:08;;;;;;;10.50;4.30;;;2.10;99.90;;;;;;4754789;30;20400;-73
2023/01/22 07:56:34;;;;;;;11.55;3.97;;;2.10;99.90;;;;;;4754948;30;20137;-73
2023/01/22 07:59:00;;;;;;;10.27;4.43;;;2.10;99.90;;;;;;4754798;30;20052;-73
2023/01/22 08:01:25;;;;;;;9.48;4.47;;;2.20;99.90;;;;;;4754762;30;20051;-73
2023/01/22 08:03:51;;;;;;;9.20;4.55;;;2.10;99.90;;;;;;4754899;30;20051;-73
2023/01/22 08:06:19;;;;;;;15.00;4.75;;;2.20;99.90;;;;;;4754557;30;20063;-73
2023/01/22 08:08:45;;;;;;;7.85;3.95;;;2.20;99.90;;;;;;4754831;30;20055;-73
2023/01/22 08:11:11;;;;;;;8.52;4.10;;;2.20;99.90;;;;;;4754612;30;20104;-73
2023/01/22 08:13:37;;;;;;;7.20;3.88;;;2.20;99.90;;;;;;4754793;30;20067;-73
2023/01/22 08:16:02;;;;;;;6.80;3.47;;;2.20;99.90;;;;;;4754533;30;20048;-73
2023/01/22 08:18:31;;;;;;;9.52;4.65;;;2.20;99.90;;;;;;4754227;30;20068;-73
2023/01/22 08:21:01;;;;;;;5.55;3.50;;;2.20;99.90;;;;;;4754502;30;20063;-73
2023/01/22 08:23:27;;;;;;;10.88;4.28;;;2.20;99.90;;;;;;4753144;30;20052;-73
2023/01/22 08:25:56;;;;;;;7.88;3.90;;;2.20;99.90;;;;;;4754458;30;20044;-73
2023/01/22 08:28:28;;;;;;;7.35;3.95;;;2.20;99.90;;;;;;4770540;30;20051;-73
2023/01/22 08:30:58;;;;;;;8.93;4.07;;;2.20;99.90;;;;;;4754716;30;20063;-73
2023/01/22 08:33:24;;;;;;;5.97;2.80;;;2.20;99.90;;;;;;4754560;30;20047;-73
2023/01/22 08:35:50;;;;;;;8.63;4.43;;;2.20;99.90;;;;;;4754570;30;20055;-73
2023/01/22 08:38:22;;;;;;;8.30;4.18;;;2.20;99.90;;;;;;4754262;30;20060;-73
2023/01/22 08:40:49;;;;;;;13.80;6.13;;;2.20;99.90;;;;;;4748162;30;20146;-72
2023/01/22 08:43:15;;;;;;;9.82;4.35;;;2.20;99.90;;;;;;4738915;30;20139;-72
2023/01/22 08:45:40;;;;;;;10.25;5.15;;;2.30;99.90;;;;;;4736259;30;20576;-72
2023/01/22 08:48:06;;;;;;;9.65;4.93;;;2.20;99.90;;;;;;4736424;30;20545;-72
2023/01/22 08:50:31;;;;;;;8.85;4.50;;;2.20;99.90;;;;;;4752369;30;20044;-72
2023/01/22 08:53:00;;;;;;;10.10;5.18;;;2.20;99.90;;;;;;4738387;30;20056;-72
2023/01/22 08:55:28;;;;;;;9.00;4.72;;;2.20;99.90;;;;;;4739934;30;20106;-72
2023/01/22 08:58:00;;;;;;;11.23;5.43;;;2.20;99.90;;;;;;4990029;24;20405;-72
2023/01/22 09:00:29;;;;;;;7.30;4.40;;;2.20;99.90;;;;;;4740092;30;20143;-72
2023/01/22 09:02:58;;;;;;;10.77;6.05;;;2.20;99.90;;;;;;4739947;30;20143;-72
2023/01/22 09:05:25;;;;;;;11.05;4.22;;;2.20;99.90;;;;;;4739955;30;20180;-72
2023/01/22 09:07:51;;;;;;;11.23;4.88;;;2.20;99.90;;;;;;4739661;30;20132;-72
2023/01/22 09:10:20;;;;;;;8.55;5.47;;;2.30;99.90;;;;;;4739649;30;20135;-72
2023/01/22 09:12:45;;;;;;;26.30;5.55;;;2.20;99.90;;;;;;4739776;30;20051;-72
2023/01/22 09:15:11;;;;;;;10.88;5.93;;;2.20;99.90;;;;;;4755663;30;20394;-72
2023/01/22 09:17:37;;;;;;;12.00;5.65;;;2.20;99.90;;;;;;4739474;30;20048;-72
2023/01/22 09:20:02;;;;;;;12.32;5.32;;;2.20;99.90;;;;;;4739692;30;20135;-72
2023/01/22 09:22:28;;;;;;;9.77;4.95;;;2.20;99.90;;;;;;4739421;30;20122;-73
2023/01/22 09:24:54;;;;;;;8.60;5.18;;;2.20;99.90;;;;;;4739471;30;20101;-73
2023/01/22 09:27:19;;;;;;;7.35;4.57;;;2.20;99.90;;;;;;4739506;30;20048;-73
2023/01/22 09:29:45;;;;;;;10.88;5.20;;;2.20;99.90;;;;;;4739692;30;20493;-73
2023/01/22 09:32:11;;;;;;;12.43;5.40;;;2.20;99.90;;;;;;4739237;30;20060;-73
2023/01/22 09:34:36;;;;;;;9.57;5.47;;;2.20;99.90;;;;;;4739230;30;20059;-73
2023/01/22 09:37:06;;;;;;;15.27;6.50;;;2.20;99.90;;;;;;4739469;30;20052;-73
2023/01/22 09:39:32;;;;;;;9.65;5.35;;;2.20;99.90;;;;;;4739497;30;20497;-72
2023/01/22 09:42:03;;;;;;;11.70;6.20;;;2.30;99.90;;;;;;4755024;30;20098;-73
2023/01/22 09:44:36;;;;;;;11.63;6.68;;;2.30;99.90;;;;;;4739148;30;20460;-73
2023/01/22 09:47:15;;;;;;;8.60;5.60;;;2.30;99.90;;;;;;4738877;30;20044;-73
2023/01/22 09:49:59;;;;;;;8.57;5.20;;;2.30;99.90;;;;;;4739266;30;20101;-73
2023/01/22 09:52:28;;;;;;;13.82;5.60;;;2.40;99.90;;;;;;4739269;30;20143;-73
2023/01/22 09:54:54;;;;;;;12.82;6.68;;;2.30;99.90;;;;;;4739281;30;20104;-73
2023/01/22 09:57:23;;;;;;;10.27;6.15;;;2.30;99.90;;;;;;4738779;30;20067;-73
2023/01/22 09:59:55;;;;;;;14.07;6.38;;;2.30;99.90;;;;;;4752604;30;20052;-73
2023/01/22 10:02:29;;;;;;;11.70;5.03;;;2.40;99.90;;;;;;4753754;30;20079;-73
2023/01/22 10:05:18;;;;;;;10.45;5.70;;;2.40;99.90;;;;;;4753126;30;20780;-73
2023/01/22 10:07:53;;;;;;;9.02;5.35;;;2.30;99.90;;;;;;4753352;30;20060;-73
2023/01/22 10:10:23;;;;;;;7.72;5.15;;;2.40;99.90;;;;;;4753626;30;20110;-72
2023/01/22 10:12:54;;;;;;;9.60;5.45;;;2.30;99.90;;;;;;4753380;30;20110;-73
2023/01/22 10:15:22;;;;;;;10.63;5.22;;;2.40;99.90;;;;;;4753364;30;20091;-73
2023/01/22 10:17:48;;;;;;;10.43;5.70;;;2.40;99.90;;;;;;4753247;30;20060;-72
2023/01/22 10:20:17;;;;;;;8.88;4.70;;;2.40;99.90;;;;;;4753228;30;20143;-73
2023/01/22 10:22:43;;;;;;;10.88;5.43;;;2.30;99.90;;;;;;4753193;30;20131;-73
2023/01/22 10:25:13;;;;;;;10.45;5.78;;;2.30;99.90;;;;;;4753430;30;20060;-73
2023/01/22 10:27:39;;;;;;;9.43;5.70;;;2.30;99.90;;;;;;4753073;30;20139;-72
2023/01/22 10:30:17;;;;;;;11.15;5.55;;;2.30;99.90;;;;;;4753266;30;20121;-73
2023/01/22 10:32:43;;;;;;;15.00;6.03;;;2.30;99.90;;;;;;4753122;30;20052;-72
2023/01/22 10:35:21;;;;;;;9.10;4.80;;;2.30;99.90;;;;;;4753157;30;20159;-73
2023/01/22 10:37:51;;;;;;;8.85;5.18;;;2.30;99.90;;;;;;4752989;30;20077;-73
2023/01/22 10:40:39;;;;;;;11.45;5.45;;;2.30;99.90;;;;;;4752785;30;20094;-72
2023/01/22 10:43:18;;;;;;;10.98;5.85;;;2.30;99.90;;;;;;4753087;30;20151;-73
2023/01/22 10:45:55;;;;;;;12.18;5.13;;;2.30;99.90;;;;;;4753035;30;20106;-73
2023/01/22 10:48:21;;;;;;;13.07;5.68;;;2.30;99.90;;;;;;4752780;30;20055;-73
2023/01/22 10:50:58;;;;;;;9.48;4.35;;;2.40;99.90;;;;;;4752758;30;20052;-72
2023/01/22 10:53:33;;;;;;;10.52;5.90;;;2.40;99.90;;;;;;4752991;30;20068;-72
2023/01/22 10:56:00;;;;;;;9.75;4.90;;;2.30;99.90;;;;;;4752816;30;20512;-73
2023/01/22 10:58:31;;;;;;;10.88;4.97;;;2.40;99.90;;;;;;4752471;30;20083;-72
2023/01/22 11:01:16;;;;;;;10.10;4.63;;;2.40;99.90;;;;;;4753736;30;20139;-73
2023/01/22 11:03:42;;;;;;;10.68;5.47;;;2.50;99.90;;;;;;4752785;30;20135;-73
2023/01/22 11:06:23;;;;;;;11.35;5.50;;;2.50;99.90;;;;;;4753464;30;20454;-73
2023/01/22 11:08:56;;;;;;;10.63;4.70;;;2.50;99.90;;;;;;4747793;30;20052;-73
2023/01/22 11:11:30;;;;;;;;;;;2.50;99.90;;;;;;4751432;30;20159;-73
2023/01/22 11:14:05;;;;;;;14.73;4.70;;;2.60;99.90;;;;;;4734597;30;20015;-73
2023/01/22 11:16:37;;;;;;;8.63;3.60;;;2.60;99.90;;;;;;4733984;30;20131;-73
2023/01/22 11:19:11;;;;;;;12.52;5.13;;;2.70;99.90;;;;;;4734870;30;20427;-73
2023/01/22 11:21:39;;;;;;;7.78;4.03;;;2.70;99.90;;;;;;4734614;30;20078;-73
2023/01/22 11:24:12;;;;;;;9.95;4.65;;;2.80;99.90;;;;;;4733988;30;20489;-72
2023/01/22 11:27:04;;;;;;;9.40;5.15;;;2.80;99.90;;;;;;4732823;30;20517;-72
2023/01/22 11:30:04;;;;;;;8.13;4.53;;;2.90;99.90;;;;;;4734507;30;20044;-72
2023/01/22 11:32:41;;;;;;;7.07;3.53;;;2.90;99.90;;;;;;4735555;30;20049;-72
2023/01/22 11:35:45;;;;;;;8.32;4.35;;;2.90;99.90;;;;;;4734696;30;20065;-72
2023/01/22 11:38:21;;;;;;;8.70;3.90;;;3.00;99.90;;;;;;4734549;30;20429;-72
2023/01/22 11:41:12;;;;;;;8.32;4.07;;;3.00;99.90;;;;;;4734290;30;20057;-72
2023/01/22 11:44:13;;;;;;;7.22;3.22;;;3.00;99.90;;;;;;4734237;30;20053;-72
2023/01/22 11:46:45;;;;;;;10.75;4.53;;;3.10;99.90;;;;;;4734259;30;20056;-72
2023/01/22 11:49:18;;;;;;;9.98;4.00;;;3.10;99.90;;;;;;4734241;30;20106;-72
2023/01/22 11:51:43;;;;;;;;;;;3.10;99.90;;;;;;4734523;30;20510;-72
2023/01/22 11:54:35;;;;;;;8.15;4.30;;;3.20;99.90;;;;;;4733955;30;19927;-73
2023/01/22 11:57:14;;;;;;;9.85;3.50;;;3.20;99.90;;;;;;4734252;30;20391;-73
2023/01/22 11:59:49;;;;;;;8.63;4.25;;;3.30;99.90;;;;;;4734266;30;20056;-73
2023/01/22 12:02:36;;;;;;;9.18;4.28;;;3.20;99.90;;;;;;4734106;30;20387;-73
2023/01/22 12:05:13;;;;;;;9.35;4.78;;;3.40;99.90;;;;;;4734330;30;20056;-73
2023/01/22 12:08:00;;;;;;;9.43;4.93;;;3.30;99.90;;;;;;4734033;30;20473;-73
2023/01/22 12:10:55;;;;;;;7.78;3.92;;;3.30;99.90;;;;;;4734117;30;20088;-73
2023/01/22 12:13:32;;;;;;;8.02;4.18;;;3.30;99.90;;;;;;4734283;30;20084;-73
2023/01/22 12:16:12;;;;;;;7.13;4.30;;;3.40;99.90;;;;;;4734009;30;20063;-73
2023/01/22 12:19:24;;;;;;;8.05;3.85;;;3.30;99.90;;;;;;4734296;30;20063;-73
2023/01/22 12:21:52;;;;;;;11.13;3.92;;;3.40;99.90;;;;;;4633136;30;20059;-74
2023/01/22 12:24:46;;;;;;;6.97;3.72;;;3.40;99.90;;;;;;4722094;30;20452;-73
2023/01/22 12:27:34;;;;;;;8.20;3.80;;;3.30;99.90;;;;;;4733725;30;20060;-74
2023/01/22 12:30:18;;;;;;;12.00;4.25;;;3.30;99.90;;;;;;4733860;30;20057;-73
2023/01/22 12:32:50;;;;;;;8.02;3.85;;;3.30;99.90;;;;;;4734102;30;20490;-73
2023/01/22 12:35:18;;;;;;;7.40;4.03;;;3.30;99.90;;;;;;4734045;30;20053;-73
2023/01/22 12:37:56;;;;;;;11.05;4.13;;;3.30;99.90;;;;;;4733987;30;20509;-73
2023/01/22 12:40:35;;;;;;;10.07;4.15;;;3.30;99.90;;;;;;4733806;30;20078;-73
2023/01/22 12:43:03;;;;;;;11.68;4.85;;;3.30;99.90;;;;;;4733985;30;20064;-74
2023/01/22 12:45:31;;;;;;;9.77;4.60;;;3.30;99.90;;;;;;4734056;30;20048;-73
2023/01/22 12:48:14;;;;;;;9.48;4.53;;;3.20;99.90;;;;;;4733727;30;20079;-73
2023/01/22 12:50:52;;;;;;;10.73;4.75;;;3.30;99.90;;;;;;4733759;30;20045;-73
2023/01/22 12:53:35;;;;;;;10.57;4.45;;;3.30;99.90;;;;;;4733692;30;20048;-73
2023/01/22 12:56:12;;;;;;;8.30;4.03;;;3.40;99.90;;;;;;4733997;30;20057;-73
2023/01/22 12:58:40;;;;;;;15.48;5.40;;;3.40;99.90;;;;;;4733618;30;20068;-73
2023/01/22 13:01:22;;;;;;;9.88;4.80;;;3.40;99.90;;;;;;4733656;30;20047;-73
2023/01/22 13:04:10;;;;;;;11.43;4.78;;;3.50;99.90;;;;;;4733605;30;20106;-74
2023/01/22 13:06:39;;;;;;;9.23;5.00;;;3.50;99.90;;;;;;4734890;30;20140;-73
2023/01/22 13:09:26;;;;;;;9.27;4.85;;;3.40;99.90;;;;;;4733670;30;20486;-73
2023/01/22 13:11:51;;;;;;;7.70;4.03;;;3.50;99.90;;;;;;4733806;30;20052;-74
2023/01/22 13:14:23;;;;;;;17.10;5.72;;;3.50;99.90;;;;;;4733460;30;20466;-74